createdAt,value
2022-07-31T00:00:18.564Z,4.80
2022-07-31T00:02:45.396Z,4.37
2022-07-31T00:05:11.921Z,4.50
2022-07-31T00:07:38.625Z,4.37
2022-07-31T00:10:05.966Z,4.50
2022-07-31T00:12:35.996Z,4.40
2022-07-31T00:15:03.866Z,4.87
2022-07-31T00:17:32.515Z,4.73
2022-07-31T00:19:59.350Z,4.90
2022-07-31T00:22:25.798Z,4.93
2022-07-31T00:24:52.259Z,5.10
2022-07-31T00:27:18.677Z,5.17
2022-07-31T00:29:45.152Z,4.73
2022-07-31T00:32:11.650Z,4.73
2022-07-31T00:34:38.105Z,5.30
2022-07-31T00:37:05.046Z,4.83
2022-07-31T00:39:31.853Z,4.93
2022-07-31T00:41:58.318Z,5.00
2022-07-31T00:44:24.771Z,5.37
2022-07-31T00:46:51.484Z,5.83
2022-07-31T00:49:18.190Z,5.00
2022-07-31T00:51:44.762Z,5.67
2022-07-31T00:54:16.939Z,5.57
2022-07-31T00:56:49.395Z,5.93
2022-07-31T00:59:15.798Z,5.93
2022-07-31T01:01:42.685Z,5.30
2022-07-31T01:04:09.211Z,5.23
2022-07-31T01:06:42.780Z,5.90
2022-07-31T01:09:09.458Z,6.00
2022-07-31T01:11:49.075Z,6.03
2022-07-31T01:14:19.942Z,5.50
2022-07-31T01:16:49.787Z,6.17
2022-07-31T01:19:39.611Z,5.23
2022-07-31T01:22:33.734Z,5.53
2022-07-31T01:25:20.810Z,5.03
2022-07-31T01:28:11.873Z,5.40
2022-07-31T01:31:24.142Z,5.23
2022-07-31T01:33:53.388Z,5.27
2022-07-31T01:36:24.820Z,5.57
2022-07-31T01:38:54.776Z,6.00
2022-07-31T01:41:26.717Z,5.53
2022-07-31T01:43:55.742Z,6.53
2022-07-31T01:46:24.882Z,5.97
2022-07-31T01:48:54.809Z,5.70
2022-07-31T01:51:23.592Z,5.77
2022-07-31T01:53:51.933Z,6.20
2022-07-31T01:56:19.306Z,6.13
2022-07-31T01:58:48.213Z,5.87
2022-07-31T02:01:15.531Z,6.03
2022-07-31T02:03:45.412Z,5.60
2022-07-31T02:06:14.561Z,5.93
2022-07-31T02:08:43.942Z,6.23
2022-07-31T02:11:10.937Z,6.20
2022-07-31T02:13:38.054Z,6.43
2022-07-31T02:16:05.261Z,6.60
2022-07-31T02:18:32.948Z,6.40
2022-07-31T02:21:00.882Z,5.43
2022-07-31T02:23:27.477Z,6.27
2022-07-31T02:25:54.570Z,5.87
2022-07-31T02:28:22.446Z,6.10
2022-07-31T02:30:50.929Z,5.73
2022-07-31T02:33:21.869Z,5.53
2022-07-31T02:35:50.443Z,5.93
2022-07-31T02:38:23.479Z,5.97
2022-07-31T02:40:52.827Z,6.20
2022-07-31T02:43:20.405Z,6.53
2022-07-31T02:45:47.877Z,6.50
2022-07-31T02:48:14.693Z,6.73
2022-07-31T02:50:41.624Z,6.60
2022-07-31T02:53:08.414Z,7.00
2022-07-31T02:55:35.314Z,7.10
2022-07-31T02:58:02.793Z,7.33
2022-07-31T03:00:29.455Z,6.97
2022-07-31T03:02:58.369Z,6.67
2022-07-31T03:05:25.486Z,7.13
2022-07-31T03:07:51.975Z,6.67
2022-07-31T03:10:18.663Z,6.27
2022-07-31T03:12:50.077Z,7.30
2022-07-31T03:15:22.261Z,6.53
2022-07-31T03:17:49.928Z,6.60
2022-07-31T03:20:16.733Z,7.17
2022-07-31T03:22:44.319Z,6.77
2022-07-31T03:25:11.881Z,6.70
2022-07-31T03:27:55.613Z,7.33
2022-07-31T03:30:23.393Z,6.20
2022-07-31T03:32:49.849Z,6.60
2022-07-31T03:35:16.279Z,6.33
2022-07-31T03:37:42.826Z,7.30
2022-07-31T03:40:12.340Z,6.50
2022-07-31T03:42:41.785Z,7.13
2022-07-31T03:45:10.833Z,6.60
2022-07-31T03:47:37.604Z,6.67
2022-07-31T03:50:05.287Z,7.10
2022-07-31T03:52:32.244Z,6.80
2022-07-31T03:54:58.934Z,6.80
2022-07-31T03:57:29.063Z,7.30
2022-07-31T04:00:00.962Z,7.30
2022-07-31T04:02:28.371Z,7.73
2022-07-31T04:04:55.239Z,7.10
2022-07-31T04:07:21.666Z,7.20
2022-07-31T04:09:48.141Z,7.17
2022-07-31T04:12:14.721Z,6.60
2022-07-31T04:14:41.434Z,7.03
2022-07-31T04:17:08.513Z,7.13
2022-07-31T04:19:35.379Z,7.10
2022-07-31T04:22:02.715Z,7.07
2022-07-31T04:24:29.325Z,7.00
2022-07-31T04:26:56.592Z,7.60
2022-07-31T04:29:23.544Z,6.83
2022-07-31T04:31:50.321Z,7.30
2022-07-31T04:34:16.801Z,7.23
2022-07-31T04:36:43.234Z,7.53
2022-07-31T04:39:09.731Z,7.10
2022-07-31T04:41:36.142Z,6.83
2022-07-31T04:44:02.578Z,6.93
2022-07-31T04:46:29.057Z,6.93
2022-07-31T04:48:55.538Z,7.17
2022-07-31T04:51:23.839Z,7.57
2022-07-31T04:53:51.408Z,6.93
2022-07-31T04:56:19.456Z,6.93
2022-07-31T04:58:46.083Z,6.90
2022-07-31T05:01:12.585Z,7.50
2022-07-31T05:03:42.866Z,7.70
2022-07-31T05:06:12.826Z,6.80
2022-07-31T05:08:40.243Z,7.20
2022-07-31T05:11:07.674Z,6.67
2022-07-31T05:13:34.083Z,7.47
2022-07-31T05:16:00.504Z,7.40
2022-07-31T05:18:26.990Z,7.30
2022-07-31T05:20:53.483Z,7.63
2022-07-31T05:23:20.070Z,7.37
2022-07-31T05:25:46.486Z,7.27
2022-07-31T05:28:12.881Z,8.40
2022-07-31T05:30:39.940Z,7.60
2022-07-31T05:33:06.350Z,7.23
2022-07-31T05:35:32.757Z,7.30
2022-07-31T05:37:59.182Z,7.47
2022-07-31T05:40:25.640Z,7.50
2022-07-31T05:42:52.054Z,7.47
2022-07-31T05:45:18.536Z,7.03
2022-07-31T05:47:44.962Z,7.83
2022-07-31T05:50:11.606Z,7.87
2022-07-31T05:52:38.530Z,7.53
2022-07-31T05:55:05.512Z,7.30
2022-07-31T05:57:34.172Z,7.40
2022-07-31T06:00:01.713Z,7.80
2022-07-31T06:02:30.389Z,7.93
2022-07-31T06:04:56.818Z,8.33
2022-07-31T06:07:23.514Z,8.07
2022-07-31T06:09:50.054Z,8.63
2022-07-31T06:12:16.894Z,8.80
2022-07-31T06:14:43.342Z,8.97
2022-07-31T06:17:09.860Z,8.43
2022-07-31T06:19:36.300Z,8.73
2022-07-31T06:22:03.353Z,8.90
2022-07-31T06:24:30.003Z,9.03
2022-07-31T06:26:57.640Z,9.30
2022-07-31T06:29:25.556Z,8.90
2022-07-31T06:32:08.603Z,9.27
2022-07-31T06:34:35.033Z,9.53
2022-07-31T06:37:01.560Z,10.27
2022-07-31T06:39:28.059Z,9.00
2022-07-31T06:42:21.394Z,9.77
2022-07-31T06:44:48.335Z,9.47
2022-07-31T06:47:16.336Z,9.23
2022-07-31T06:49:42.947Z,9.07
2022-07-31T06:52:09.432Z,9.30
2022-07-31T06:54:36.110Z,8.97
2022-07-31T06:57:03.803Z,9.27
2022-07-31T06:59:39.943Z,9.47
2022-07-31T07:02:08.125Z,9.83
2022-07-31T07:05:00.049Z,10.50
2022-07-31T07:07:21.617Z,9.70
2022-07-31T07:09:48.178Z,10.60
2022-07-31T07:12:16.889Z,10.07
2022-07-31T07:14:43.974Z,11.97
2022-07-31T07:17:10.533Z,12.37
2022-07-31T07:19:40.267Z,12.53
2022-07-31T07:22:07.055Z,12.30
2022-07-31T07:24:33.783Z,11.87
2022-07-31T07:27:00.262Z,12.73
2022-07-31T07:29:28.700Z,11.63
2022-07-31T07:31:55.250Z,13.10
2022-07-31T07:34:21.758Z,12.87
2022-07-31T07:36:48.148Z,13.03
2022-07-31T07:39:14.577Z,13.20
2022-07-31T07:41:40.973Z,12.93
2022-07-31T07:44:07.384Z,13.23
2022-07-31T07:46:34.428Z,13.77
2022-07-31T07:49:03.611Z,11.27
2022-07-31T07:51:30.158Z,12.40
2022-07-31T07:53:59.074Z,11.63
2022-07-31T07:56:25.615Z,12.13
2022-07-31T07:58:55.427Z,10.80
2022-07-31T08:01:24.503Z,10.60
2022-07-31T08:03:52.302Z,11.30
2022-07-31T08:06:25.695Z,12.43
2022-07-31T08:08:54.519Z,11.23
2022-07-31T08:11:20.991Z,12.17
2022-07-31T08:13:50.657Z,11.40
2022-07-31T08:16:20.831Z,11.60
2022-07-31T08:18:48.301Z,13.90
2022-07-31T08:21:17.027Z,12.07
2022-07-31T08:23:43.707Z,13.33
2022-07-31T08:26:10.656Z,13.30
2022-07-31T08:28:38.574Z,13.03
2022-07-31T08:31:05.304Z,14.23
2022-07-31T08:33:31.954Z,13.70
2022-07-31T08:35:58.869Z,12.70
2022-07-31T08:38:27.584Z,13.67
2022-07-31T08:40:55.347Z,14.23
2022-07-31T08:44:01.801Z,14.27
2022-07-31T08:46:13.296Z,14.53
2022-07-31T08:48:43.431Z,13.90
2022-07-31T08:51:20.304Z,13.97
2022-07-31T08:53:51.781Z,14.77
2022-07-31T08:56:25.480Z,14.53
2022-07-31T08:59:12.579Z,15.03
2022-07-31T09:01:41.854Z,14.43
2022-07-31T09:04:10.383Z,15.27
2022-07-31T09:06:54.705Z,15.37
2022-07-31T09:09:23.739Z,14.90
2022-07-31T09:12:13.455Z,17.03
2022-07-31T09:14:52.676Z,17.10
2022-07-31T09:17:35.952Z,17.17
2022-07-31T09:20:16.485Z,16.70
2022-07-31T09:22:44.923Z,17.37
2022-07-31T09:25:22.571Z,16.97
2022-07-31T09:27:51.020Z,16.90
2022-07-31T09:30:30.445Z,16.77
2022-07-31T09:32:59.624Z,16.70
2022-07-31T09:35:33.786Z,16.33
2022-07-31T09:38:00.480Z,15.80
2022-07-31T09:40:36.811Z,15.83
2022-07-31T09:43:51.617Z,16.67
2022-07-31T09:46:29.004Z,16.03
2022-07-31T09:49:01.936Z,15.17
2022-07-31T09:51:40.385Z,14.80
2022-07-31T09:54:23.497Z,13.97
2022-07-31T09:57:04.638Z,14.10
2022-07-31T09:59:31.380Z,13.13
2022-07-31T10:02:05.686Z,11.50
2022-07-31T10:04:32.495Z,12.67
2022-07-31T10:07:01.691Z,10.90
2022-07-31T10:09:30.501Z,10.40
2022-07-31T10:12:01.275Z,9.70
2022-07-31T10:15:22.744Z,9.13
2022-07-31T10:17:33.683Z,9.53
2022-07-31T10:20:10.732Z,9.43
2022-07-31T10:22:53.739Z,9.83
2022-07-31T10:25:43.514Z,10.93
2022-07-31T10:28:25.155Z,11.97
2022-07-31T10:30:52.116Z,13.10
2022-07-31T10:33:43.165Z,14.40
2022-07-31T10:36:26.932Z,15.80
2022-07-31T10:38:55.516Z,16.33
2022-07-31T10:41:39.284Z,16.90
2022-07-31T10:44:18.339Z,17.30
2022-07-31T10:46:44.935Z,17.43
2022-07-31T10:49:11.726Z,18.37
2022-07-31T10:51:51.219Z,18.47
2022-07-31T10:54:19.143Z,17.70
2022-07-31T10:56:48.448Z,17.47
2022-07-31T10:59:15.144Z,16.40
2022-07-31T11:01:52.876Z,15.57
2022-07-31T11:04:29.419Z,15.97
2022-07-31T11:06:59.106Z,16.87
2022-07-31T11:09:27.902Z,16.60
2022-07-31T11:11:55.413Z,16.90
2022-07-31T11:14:39.837Z,15.13
2022-07-31T11:17:09.551Z,14.97
2022-07-31T11:19:41.658Z,14.37
2022-07-31T11:22:32.019Z,14.20
2022-07-31T11:24:59.520Z,14.03
2022-07-31T11:27:32.968Z,15.63
2022-07-31T11:30:12.391Z,15.53
2022-07-31T11:32:40.823Z,14.43
2022-07-31T11:35:07.791Z,15.00
2022-07-31T11:37:46.552Z,11.00
2022-07-31T11:40:22.346Z,8.57
2022-07-31T11:43:23.266Z,6.07
2022-07-31T11:45:51.994Z,5.23
2022-07-31T11:48:20.238Z,6.00
2022-07-31T11:50:49.734Z,6.93
2022-07-31T11:53:17.566Z,6.90
2022-07-31T11:55:49.165Z,6.50
2022-07-31T11:58:17.044Z,5.33
2022-07-31T12:00:58.533Z,5.97
2022-07-31T12:03:33.136Z,4.47
2022-07-31T12:05:59.845Z,5.53
2022-07-31T12:08:28.114Z,5.60
2022-07-31T12:10:56.084Z,5.37
2022-07-31T12:13:24.271Z,5.07
2022-07-31T12:16:04.987Z,4.90
2022-07-31T12:18:52.673Z,5.20
2022-07-31T12:21:20.181Z,4.73
2022-07-31T12:23:50.009Z,5.20
2022-07-31T12:26:25.068Z,4.10
2022-07-31T12:29:03.698Z,4.30
2022-07-31T12:31:42.817Z,4.27
2022-07-31T12:34:09.259Z,4.27
2022-07-31T12:36:35.696Z,5.23
2022-07-31T12:39:04.875Z,5.23
2022-07-31T12:41:42.693Z,5.87
2022-07-31T12:44:14.591Z,6.60
2022-07-31T12:46:41.885Z,6.60
2022-07-31T12:49:09.815Z,6.67
2022-07-31T12:51:45.519Z,7.07
2022-07-31T12:54:15.498Z,6.97
2022-07-31T12:56:42.986Z,7.07
2022-07-31T12:59:12.141Z,6.47
2022-07-31T13:01:39.148Z,6.33
2022-07-31T13:04:08.064Z,6.73
2022-07-31T13:06:46.377Z,7.33
2022-07-31T13:09:21.710Z,7.10
2022-07-31T13:11:55.805Z,6.87
2022-07-31T13:14:30.020Z,6.70
2022-07-31T13:17:05.331Z,7.43
2022-07-31T13:19:32.001Z,8.33
2022-07-31T13:21:58.403Z,7.90
2022-07-31T13:24:24.909Z,8.10
2022-07-31T13:26:51.457Z,7.80
2022-07-31T13:29:18.190Z,8.87
2022-07-31T13:31:47.857Z,9.00
2022-07-31T13:34:14.433Z,8.80
2022-07-31T13:36:41.064Z,8.30
2022-07-31T13:39:08.323Z,8.23
2022-07-31T13:41:38.959Z,8.73
2022-07-31T13:44:06.270Z,8.90
2022-07-31T13:46:39.018Z,7.77
2022-07-31T13:49:05.929Z,7.53
2022-07-31T13:51:34.821Z,7.80
2022-07-31T13:54:03.370Z,7.17
2022-07-31T13:56:39.412Z,7.50
2022-07-31T13:59:11.690Z,7.30
2022-07-31T14:02:04.175Z,7.60
2022-07-31T14:04:32.715Z,6.87
2022-07-31T14:07:07.820Z,6.17
2022-07-31T14:09:35.232Z,5.07
2022-07-31T14:12:08.269Z,5.53
2022-07-31T14:14:37.552Z,5.43
2022-07-31T14:17:04.231Z,6.00
2022-07-31T14:19:43.976Z,6.07
2022-07-31T14:22:11.621Z,5.60
2022-07-31T14:24:49.395Z,6.27
2022-07-31T14:27:17.723Z,6.23
2022-07-31T14:29:47.158Z,6.70
2022-07-31T14:32:13.701Z,6.30
2022-07-31T14:34:40.256Z,6.60
2022-07-31T14:37:07.007Z,5.43
2022-07-31T14:39:34.988Z,5.43
2022-07-31T14:42:04.211Z,6.37
2022-07-31T14:44:31.969Z,5.93
2022-07-31T14:47:01.438Z,5.77
2022-07-31T14:50:07.559Z,6.67
2022-07-31T14:52:17.040Z,5.47
2022-07-31T14:54:55.343Z,5.60
2022-07-31T14:57:22.505Z,5.30
2022-07-31T14:59:51.635Z,5.60
2022-07-31T15:02:22.207Z,6.30
2022-07-31T15:04:49.421Z,6.13
2022-07-31T15:10:07.592Z,5.30
2022-07-31T15:12:36.223Z,6.40
2022-07-31T15:15:03.813Z,6.37
2022-07-31T15:17:33.884Z,5.97
2022-07-31T15:20:00.532Z,6.53
2022-07-31T15:22:29.120Z,6.80
2022-07-31T15:24:56.677Z,6.30
2022-07-31T15:27:30.527Z,6.97
2022-07-31T15:30:06.453Z,7.30
2022-07-31T15:32:36.132Z,7.17
2022-07-31T15:35:05.592Z,6.93
2022-07-31T15:37:38.027Z,6.40
2022-07-31T15:40:10.275Z,6.20
2022-07-31T15:42:43.501Z,5.83
2022-07-31T15:45:14.330Z,5.50
2022-07-31T15:47:43.596Z,5.57
2022-07-31T15:50:16.570Z,4.60
2022-07-31T15:52:45.062Z,5.20
2022-07-31T15:55:11.886Z,5.00
2022-07-31T15:57:40.826Z,5.27
2022-07-31T16:00:09.203Z,4.40
2022-07-31T16:02:36.863Z,4.00
2022-07-31T16:05:11.184Z,4.70
2022-07-31T16:08:31.994Z,5.00
2022-07-31T16:10:27.944Z,4.70
2022-07-31T16:12:56.959Z,4.50
2022-07-31T16:15:24.022Z,4.70
2022-07-31T16:17:56.614Z,4.77
2022-07-31T16:20:26.433Z,5.10
2022-07-31T16:22:58.352Z,4.90
2022-07-31T16:25:31.991Z,4.90
2022-07-31T16:28:02.312Z,4.90
2022-07-31T16:30:28.912Z,5.23
2022-07-31T16:32:57.041Z,4.37
2022-07-31T16:35:29.963Z,5.27
2022-07-31T16:37:56.556Z,4.93
2022-07-31T16:40:31.674Z,4.80
2022-07-31T16:43:47.254Z,4.30
2022-07-31T16:46:01.426Z,4.60
2022-07-31T16:48:29.193Z,4.50
2022-07-31T16:51:06.024Z,4.40
2022-07-31T16:54:14.961Z,4.30
2022-07-31T16:56:26.872Z,3.93
2022-07-31T16:58:56.298Z,4.73
2022-07-31T17:01:54.021Z,4.90
2022-07-31T17:04:16.042Z,4.20
2022-07-31T17:06:46.952Z,4.50
2022-07-31T17:09:24.373Z,4.47
2022-07-31T17:12:01.588Z,3.93
2022-07-31T17:14:33.144Z,3.93
2022-07-31T17:17:01.763Z,4.20
2022-07-31T17:19:45.743Z,3.90
2022-07-31T17:22:17.655Z,4.60
2022-07-31T17:24:48.106Z,4.50
2022-07-31T17:27:19.012Z,3.87
2022-07-31T17:29:46.787Z,3.20
2022-07-31T17:32:14.697Z,3.30
2022-07-31T17:34:41.311Z,3.30
2022-07-31T17:37:14.184Z,3.03
2022-07-31T17:39:40.749Z,3.53
2022-07-31T17:42:09.241Z,3.23
2022-07-31T17:44:40.022Z,3.33
2022-07-31T17:47:08.055Z,3.53
2022-07-31T17:49:35.057Z,3.53
2022-07-31T17:52:01.800Z,4.10
2022-07-31T17:54:33.257Z,3.57
2022-07-31T17:57:00.201Z,3.70
2022-07-31T17:59:29.725Z,3.50
2022-07-31T18:02:00.003Z,3.57
2022-07-31T18:04:28.416Z,4.07
2022-07-31T18:06:55.227Z,3.67
2022-07-31T18:09:22.840Z,3.83
2022-07-31T18:11:50.497Z,3.80
2022-07-31T18:14:18.207Z,3.90
2022-07-31T18:16:48.604Z,4.60
2022-07-31T18:19:15.769Z,5.00
2022-07-31T18:21:44.728Z,4.97
2022-07-31T18:24:11.375Z,5.73
2022-07-31T18:26:40.911Z,5.77
2022-07-31T18:29:08.501Z,4.93
2022-07-31T18:31:36.427Z,5.60
2022-07-31T18:34:10.427Z,6.47
2022-07-31T18:36:39.104Z,6.67
2022-07-31T18:39:08.820Z,6.80
2022-07-31T18:41:48.994Z,6.40
2022-07-31T18:44:16.538Z,6.97
2022-07-31T18:46:43.182Z,7.30
2022-07-31T18:51:02.175Z,7.53
2022-07-31T18:52:02.809Z,7.47
2022-07-31T18:54:34.167Z,7.53
2022-07-31T19:00:15.850Z,6.90
2022-07-31T19:02:39.948Z,6.90
2022-07-31T19:05:07.988Z,6.67
2022-07-31T19:07:42.991Z,7.00
2022-07-31T19:10:29.545Z,6.57
2022-07-31T19:13:00.118Z,5.73
2022-07-31T19:15:46.736Z,6.33
2022-07-31T19:18:15.215Z,5.77
2022-07-31T19:21:00.036Z,4.13
2022-07-31T19:23:29.639Z,3.00
2022-07-31T19:26:03.975Z,3.00
2022-07-31T19:28:41.344Z,2.90
2022-07-31T19:31:07.870Z,1.90
2022-07-31T19:33:34.693Z,1.90
2022-07-31T19:36:02.915Z,1.50
2022-07-31T19:38:37.900Z,1.70
2022-07-31T19:41:06.898Z,1.90
2022-07-31T19:43:33.507Z,2.10
2022-07-31T19:46:11.704Z,1.60
2022-07-31T19:48:46.147Z,1.70
2022-07-31T19:51:14.855Z,2.10
2022-07-31T19:53:41.913Z,2.50
2022-07-31T19:56:13.822Z,3.43
2022-07-31T19:58:44.818Z,3.07
2022-07-31T20:01:11.390Z,3.80
2022-07-31T20:03:44.029Z,3.80
2022-07-31T20:06:10.728Z,3.90
2022-07-31T20:08:40.864Z,4.60
2022-07-31T20:11:07.436Z,4.43
2022-07-31T20:13:35.242Z,4.43
2022-07-31T20:16:02.100Z,4.77
2022-07-31T20:18:31.559Z,5.10
2022-07-31T20:21:08.617Z,5.17
2022-07-31T20:23:40.382Z,5.60
2022-07-31T20:26:12.478Z,5.87
2022-07-31T20:28:41.378Z,5.63
2022-07-31T20:31:16.158Z,5.43
2022-07-31T20:33:57.233Z,6.13
2022-07-31T20:36:27.356Z,5.83
2022-07-31T20:38:57.471Z,6.53
2022-07-31T20:41:30.315Z,6.10
2022-07-31T20:44:07.044Z,6.73
2022-07-31T20:46:56.135Z,7.30
2022-07-31T20:49:35.337Z,6.10
2022-07-31T20:52:09.909Z,5.63
2022-07-31T20:54:39.528Z,5.30
2022-07-31T20:57:07.072Z,6.10
2022-07-31T21:02:20.436Z,5.07
2022-07-31T21:04:47.074Z,5.20
2022-07-31T21:07:18.060Z,5.23
2022-07-31T21:09:47.539Z,5.87
2022-07-31T21:12:16.498Z,6.43
2022-07-31T21:14:43.118Z,5.97
2022-07-31T21:17:18.905Z,6.73
2022-07-31T21:19:54.434Z,7.37
2022-07-31T21:22:22.337Z,7.70
2022-07-31T21:25:00.389Z,8.23
2022-07-31T21:27:29.003Z,8.17
2022-07-31T21:30:00.120Z,9.07
2022-07-31T21:32:29.507Z,8.03
2022-07-31T21:35:01.014Z,8.43
2022-07-31T21:37:39.061Z,8.97
2022-07-31T21:40:09.121Z,9.33
2022-07-31T21:42:42.597Z,9.37
2022-07-31T21:45:12.116Z,9.90
2022-07-31T21:47:52.331Z,10.17
2022-07-31T21:50:29.045Z,10.60
2022-07-31T21:53:22.490Z,11.00
2022-07-31T21:55:48.242Z,9.87
2022-07-31T21:58:15.394Z,9.33
2022-07-31T22:00:42.234Z,8.73
2022-07-31T22:03:08.864Z,9.57
2022-07-31T22:05:35.480Z,8.43
2022-07-31T22:08:02.055Z,8.20
2022-07-31T22:10:34.419Z,7.20
2022-07-31T22:13:00.991Z,5.77
2022-07-31T22:15:50.553Z,5.63
2022-07-31T22:18:19.264Z,4.37
2022-07-31T22:20:47.571Z,4.10
2022-07-31T22:23:21.079Z,3.70
2022-07-31T22:25:48.257Z,3.53
2022-07-31T22:28:16.880Z,3.10
2022-07-31T22:30:43.719Z,3.40
2022-07-31T22:33:10.359Z,3.07
2022-07-31T22:35:37.001Z,3.50
2022-07-31T22:38:03.738Z,3.67
2022-07-31T22:40:30.464Z,3.47
2022-07-31T22:42:58.141Z,3.80
2022-07-31T22:45:26.587Z,3.40
2022-07-31T22:47:56.595Z,3.87
2022-07-31T22:50:23.190Z,4.13
2022-07-31T22:52:49.920Z,4.17
2022-07-31T22:55:21.858Z,4.03
2022-07-31T22:57:48.355Z,3.97
2022-07-31T23:00:15.372Z,4.30
2022-07-31T23:02:47.469Z,4.07
2022-07-31T23:05:14.025Z,4.40
2022-07-31T23:07:40.539Z,4.80
2022-07-31T23:10:07.969Z,4.97
2022-07-31T23:12:34.810Z,5.30
2022-07-31T23:15:01.452Z,5.07
2022-07-31T23:17:29.107Z,6.43
2022-07-31T23:19:56.115Z,5.00
2022-07-31T23:22:33.899Z,5.57
2022-07-31T23:25:02.948Z,5.30
2022-07-31T23:27:29.599Z,5.23
2022-07-31T23:29:56.027Z,5.73
2022-07-31T23:32:22.460Z,5.27
2022-07-31T23:34:48.859Z,5.20
2022-07-31T23:37:15.474Z,5.03
2022-07-31T23:39:42.091Z,4.57
2022-07-31T23:42:08.879Z,5.30
2022-07-31T23:44:39.932Z,4.93
2022-07-31T23:47:06.804Z,5.40
2022-07-31T23:49:33.353Z,4.67
2022-07-31T23:51:59.797Z,4.70
2022-07-31T23:54:26.450Z,4.83
2022-07-31T23:56:53.078Z,4.33
2022-07-31T23:59:19.483Z,4.03
